createdAt,value
2018-07-08T00:00:05.283Z,15.60
2018-07-08T00:01:05.197Z,15.60
2018-07-08T00:02:08.492Z,15.60
2018-07-08T00:03:05.840Z,15.50
2018-07-08T00:04:09.031Z,15.50
2018-07-08T00:05:05.822Z,15.50
2018-07-08T00:06:05.343Z,15.50
2018-07-08T00:07:10.866Z,15.50
2018-07-08T00:08:08.519Z,15.50
2018-07-08T00:09:06.258Z,15.50
2018-07-08T00:10:05.740Z,15.50
2018-07-08T00:11:06.252Z,15.50
2018-07-08T00:12:06.060Z,15.40
2018-07-08T00:13:05.571Z,15.50
2018-07-08T00:14:05.194Z,15.50
2018-07-08T00:15:05.894Z,15.40
2018-07-08T00:16:08.809Z,15.40
2018-07-08T00:17:05.339Z,15.40
2018-07-08T00:18:06.582Z,15.40
2018-07-08T00:19:15.677Z,15.30
2018-07-08T00:20:06.102Z,15.40
2018-07-08T00:21:05.562Z,15.30
2018-07-08T00:22:05.312Z,15.30
2018-07-08T00:23:08.526Z,15.30
2018-07-08T00:24:05.925Z,15.30
2018-07-08T00:25:14.585Z,15.30
2018-07-08T00:26:06.077Z,15.30
2018-07-08T00:27:08.104Z,15.30
2018-07-08T00:28:05.453Z,15.30
2018-07-08T00:29:09.008Z,15.40
2018-07-08T00:30:05.418Z,15.30
2018-07-08T00:31:11.008Z,15.30
2018-07-08T00:32:05.547Z,15.30
2018-07-08T00:33:05.870Z,15.30
2018-07-08T00:34:07.769Z,15.30
2018-07-08T00:35:12.728Z,15.30
2018-07-08T00:36:05.038Z,15.30
2018-07-08T00:37:05.627Z,15.30
2018-07-08T00:38:08.542Z,15.30
2018-07-08T00:39:05.964Z,15.30
2018-07-08T00:40:08.876Z,15.30
2018-07-08T00:41:10.541Z,15.30
2018-07-08T00:42:10.100Z,15.30
2018-07-08T00:43:08.118Z,15.30
2018-07-08T00:44:05.753Z,15.20
2018-07-08T00:45:05.406Z,15.30
2018-07-08T00:46:05.112Z,15.30
2018-07-08T00:47:08.602Z,15.20
2018-07-08T00:48:09.069Z,15.20
2018-07-08T00:49:05.819Z,15.20
2018-07-08T00:50:06.037Z,15.20
2018-07-08T00:51:10.969Z,15.10
2018-07-08T00:52:05.524Z,15.10
2018-07-08T00:53:05.925Z,15.10
2018-07-08T00:54:05.794Z,15.10
2018-07-08T00:55:05.427Z,15.10
2018-07-08T00:56:06.122Z,15.00
2018-07-08T00:57:05.332Z,15.10
2018-07-08T00:58:06.050Z,15.00
2018-07-08T00:59:05.848Z,15.00
2018-07-08T01:00:05.059Z,15.00
2018-07-08T01:01:05.699Z,15.00
2018-07-08T01:02:05.104Z,14.90
2018-07-08T01:03:05.442Z,14.90
2018-07-08T01:04:06.382Z,15.00
2018-07-08T01:05:11.405Z,15.00
2018-07-08T01:06:05.752Z,14.90
2018-07-08T01:07:05.750Z,15.00
2018-07-08T01:08:05.316Z,15.00
2018-07-08T01:09:06.918Z,14.90
2018-07-08T01:10:05.113Z,14.90
2018-07-08T01:11:05.805Z,14.90
2018-07-08T01:12:05.560Z,14.90
2018-07-08T01:13:08.888Z,14.90
2018-07-08T01:14:05.363Z,14.80
2018-07-08T01:15:06.026Z,14.80
2018-07-08T01:16:05.341Z,14.80
2018-07-08T01:17:05.470Z,14.80
2018-07-08T01:18:05.890Z,14.80
2018-07-08T01:19:05.967Z,14.80
2018-07-08T01:20:10.226Z,14.70
2018-07-08T01:21:08.677Z,14.70
2018-07-08T01:22:05.189Z,14.70
2018-07-08T01:23:06.197Z,14.70
2018-07-08T01:24:05.315Z,14.70
2018-07-08T01:25:09.181Z,14.70
2018-07-08T01:26:08.984Z,14.70
2018-07-08T01:27:10.545Z,14.70
2018-07-08T01:28:05.617Z,14.70
2018-07-08T01:29:09.057Z,14.60
2018-07-08T01:30:05.497Z,14.60
2018-07-08T01:31:10.976Z,14.60
2018-07-08T01:32:11.080Z,14.50
2018-07-08T01:33:05.431Z,14.60
2018-07-08T01:34:08.670Z,14.50
2018-07-08T01:35:12.873Z,14.50
2018-07-08T01:36:05.311Z,14.50
2018-07-08T01:37:10.632Z,14.50
2018-07-08T01:38:05.292Z,14.50
2018-07-08T01:39:05.504Z,14.50
2018-07-08T01:40:05.276Z,14.40
2018-07-08T01:41:06.253Z,14.50
2018-07-08T01:42:05.185Z,14.50
2018-07-08T01:43:05.537Z,14.40
2018-07-08T01:44:06.071Z,14.40
2018-07-08T01:45:08.408Z,14.40
2018-07-08T01:46:08.402Z,14.40
2018-07-08T01:47:06.144Z,14.40
2018-07-08T01:48:05.318Z,14.40
2018-07-08T01:49:05.129Z,14.40
2018-07-08T01:50:05.543Z,14.30
2018-07-08T01:51:08.059Z,14.40
2018-07-08T01:52:05.497Z,14.30
2018-07-08T01:53:05.211Z,14.40
2018-07-08T01:54:07.860Z,14.40
2018-07-08T01:55:05.465Z,14.30
2018-07-08T01:56:06.045Z,14.40
2018-07-08T01:57:05.296Z,14.30
2018-07-08T01:58:05.383Z,14.30
2018-07-08T01:59:06.151Z,14.40
2018-07-08T02:00:10.810Z,14.30
2018-07-08T02:01:06.226Z,14.30
2018-07-08T02:02:05.782Z,14.30
2018-07-08T02:03:08.668Z,14.30
2018-07-08T02:04:05.060Z,14.30
2018-07-08T02:05:05.981Z,14.30
2018-07-08T02:06:05.919Z,14.30
2018-07-08T02:07:05.286Z,14.30
2018-07-08T02:08:10.769Z,14.30
2018-07-08T02:09:05.744Z,14.30
2018-07-08T02:10:05.850Z,14.20
2018-07-08T02:11:06.541Z,14.20
2018-07-08T02:12:05.682Z,14.30
2018-07-08T02:13:05.395Z,14.20
2018-07-08T02:14:10.861Z,14.20
2018-07-08T02:15:05.911Z,14.10
2018-07-08T02:16:08.802Z,14.20
2018-07-08T02:17:05.366Z,14.20
2018-07-08T02:18:05.229Z,14.20
2018-07-08T02:19:10.779Z,14.20
2018-07-08T02:20:08.984Z,14.10
2018-07-08T02:21:10.411Z,14.10
2018-07-08T02:22:09.016Z,14.10
2018-07-08T02:23:05.922Z,14.10
2018-07-08T02:24:08.598Z,14.00
2018-07-08T02:25:05.972Z,14.00
2018-07-08T02:26:05.113Z,14.00
2018-07-08T02:27:05.623Z,14.00
2018-07-08T02:28:06.380Z,14.00
2018-07-08T02:29:10.752Z,13.90
2018-07-08T02:30:09.868Z,13.90
2018-07-08T02:31:05.894Z,13.80
2018-07-08T02:32:05.914Z,13.80
2018-07-08T02:33:05.854Z,13.80
2018-07-08T02:34:05.942Z,13.80
2018-07-08T02:35:05.135Z,13.80
2018-07-08T02:36:08.251Z,13.70
2018-07-08T02:37:05.585Z,13.70
2018-07-08T02:38:05.566Z,13.70
2018-07-08T02:39:06.047Z,13.70
2018-07-08T02:40:05.960Z,13.70
2018-07-08T02:41:06.018Z,13.70
2018-07-08T02:42:06.120Z,13.60
2018-07-08T02:43:09.294Z,13.70
2018-07-08T02:44:06.037Z,13.60
2018-07-08T02:45:08.189Z,13.60
2018-07-08T02:46:08.078Z,13.70
2018-07-08T02:47:05.517Z,13.70
2018-07-08T02:48:05.184Z,13.70
2018-07-08T02:49:05.713Z,13.70
2018-07-08T02:50:05.698Z,13.60
2018-07-08T02:51:05.510Z,13.70
2018-07-08T02:52:06.178Z,13.70
2018-07-08T02:53:05.864Z,13.70
2018-07-08T02:54:05.460Z,13.70
2018-07-08T02:55:13.086Z,13.70
2018-07-08T02:56:05.801Z,13.70
2018-07-08T02:57:06.530Z,13.80
2018-07-08T02:58:06.127Z,13.80
2018-07-08T02:59:10.872Z,13.80
2018-07-08T03:00:05.289Z,13.80
2018-07-08T03:01:06.166Z,13.80
2018-07-08T03:02:05.330Z,13.80
2018-07-08T03:03:05.060Z,13.80
2018-07-08T03:04:09.477Z,13.80
2018-07-08T03:05:05.865Z,13.70
2018-07-08T03:06:06.395Z,13.70
2018-07-08T03:07:08.878Z,13.70
2018-07-08T03:08:07.984Z,13.70
2018-07-08T03:09:05.695Z,13.70
2018-07-08T03:10:08.524Z,13.70
2018-07-08T03:11:05.950Z,13.60
2018-07-08T03:12:05.930Z,13.70
2018-07-08T03:13:05.382Z,13.70
2018-07-08T03:14:05.563Z,13.60
2018-07-08T03:15:05.720Z,13.60
2018-07-08T03:16:05.387Z,13.60
2018-07-08T03:17:05.876Z,13.50
2018-07-08T03:18:05.186Z,13.60
2018-07-08T03:19:05.692Z,13.50
2018-07-08T03:20:06.084Z,13.50
2018-07-08T03:21:05.568Z,13.50
2018-07-08T03:22:10.834Z,13.50
2018-07-08T03:23:10.098Z,13.50
2018-07-08T03:24:10.246Z,13.50
2018-07-08T03:25:10.429Z,13.60
2018-07-08T03:26:05.683Z,13.50
2018-07-08T03:27:05.165Z,13.50
2018-07-08T03:28:05.710Z,13.50
2018-07-08T03:29:06.100Z,13.50
2018-07-08T03:30:05.236Z,13.50
2018-07-08T03:31:06.211Z,13.50
2018-07-08T03:32:05.326Z,13.50
2018-07-08T03:33:05.588Z,13.50
2018-07-08T03:34:05.626Z,13.50
2018-07-08T03:35:05.330Z,13.40
2018-07-08T03:36:05.845Z,13.40
2018-07-08T03:37:05.208Z,13.40
2018-07-08T03:38:07.600Z,13.40
2018-07-08T03:39:06.400Z,13.50
2018-07-08T03:40:08.380Z,13.50
2018-07-08T03:41:11.015Z,13.50
2018-07-08T03:42:05.381Z,13.50
2018-07-08T03:43:05.657Z,13.60
2018-07-08T03:44:05.640Z,13.60
2018-07-08T03:45:05.770Z,13.60
2018-07-08T03:46:05.772Z,13.60
2018-07-08T03:47:05.880Z,13.60
2018-07-08T03:48:08.530Z,13.60
2018-07-08T03:49:11.109Z,13.60
2018-07-08T03:50:05.325Z,13.60
2018-07-08T03:51:05.631Z,13.70
2018-07-08T03:52:08.271Z,13.70
2018-07-08T03:53:05.703Z,13.60
2018-07-08T03:54:05.992Z,13.70
2018-07-08T03:55:08.824Z,13.70
2018-07-08T03:56:05.578Z,13.70
2018-07-08T03:57:10.396Z,13.70
2018-07-08T03:58:06.519Z,13.70
2018-07-08T03:59:05.904Z,13.70
2018-07-08T04:00:10.968Z,13.70
2018-07-08T04:01:05.550Z,13.70
2018-07-08T04:02:10.941Z,13.80
2018-07-08T04:03:05.638Z,13.70
2018-07-08T04:04:05.864Z,13.80
2018-07-08T04:05:05.839Z,13.80
2018-07-08T04:06:05.472Z,13.90
2018-07-08T04:07:08.568Z,14.10
2018-07-08T04:08:08.789Z,14.20
2018-07-08T04:09:05.216Z,14.30
2018-07-08T04:10:05.723Z,14.40
2018-07-08T04:11:05.755Z,14.60
2018-07-08T04:12:08.299Z,15.00
2018-07-08T04:13:05.885Z,15.00
2018-07-08T04:14:05.571Z,15.20
2018-07-08T04:15:05.857Z,15.40
2018-07-08T04:16:08.044Z,15.80
2018-07-08T04:17:05.527Z,15.80
2018-07-08T04:18:05.436Z,16.00
2018-07-08T04:19:08.708Z,16.50
2018-07-08T04:20:05.430Z,16.50
2018-07-08T04:21:08.865Z,16.90
2018-07-08T04:22:05.521Z,16.90
2018-07-08T04:23:05.233Z,17.10
2018-07-08T04:24:08.774Z,17.50
2018-07-08T04:25:05.924Z,17.50
2018-07-08T04:26:05.833Z,17.70
2018-07-08T04:27:08.324Z,18.10
2018-07-08T04:28:08.902Z,18.20
2018-07-08T04:29:10.336Z,18.20
2018-07-08T04:30:05.701Z,18.30
2018-07-08T04:31:05.864Z,18.50
2018-07-08T04:32:05.753Z,18.60
2018-07-08T04:33:05.292Z,18.80
2018-07-08T04:34:05.064Z,18.90
2018-07-08T04:35:05.998Z,19.10
2018-07-08T04:36:05.076Z,19.20
2018-07-08T04:37:05.596Z,19.30
2018-07-08T04:38:07.706Z,19.50
2018-07-08T04:39:05.237Z,19.50
2018-07-08T04:40:05.831Z,19.60
2018-07-08T04:41:10.784Z,19.80
2018-07-08T04:42:05.828Z,19.80
2018-07-08T04:43:10.537Z,20.00
2018-07-08T04:44:05.781Z,20.10
2018-07-08T04:45:08.379Z,20.30
2018-07-08T04:46:05.771Z,20.30
2018-07-08T04:47:05.687Z,20.40
2018-07-08T04:48:05.539Z,20.40
2018-07-08T04:49:05.942Z,20.50
2018-07-08T04:50:05.073Z,20.60
2018-07-08T04:51:10.177Z,20.80
2018-07-08T04:52:05.103Z,20.80
2018-07-08T04:53:08.702Z,21.00
2018-07-08T04:54:08.782Z,21.10
2018-07-08T04:55:05.274Z,21.10
2018-07-08T04:56:05.850Z,21.20
2018-07-08T04:57:05.476Z,21.30
2018-07-08T04:58:05.529Z,21.40
2018-07-08T04:59:05.787Z,21.40
2018-07-08T05:00:05.053Z,21.50
2018-07-08T05:01:05.984Z,21.60
2018-07-08T05:02:06.023Z,21.70
2018-07-08T05:03:05.215Z,21.80
2018-07-08T05:04:05.363Z,22.00
2018-07-08T05:05:05.313Z,22.00
2018-07-08T05:06:08.654Z,22.20
2018-07-08T05:07:06.016Z,22.20
2018-07-08T05:08:05.552Z,22.20
2018-07-08T05:09:05.624Z,22.30
2018-07-08T05:10:10.348Z,22.30
2018-07-08T05:11:05.441Z,22.30
2018-07-08T05:12:06.008Z,22.30
2018-07-08T05:13:05.925Z,22.30
2018-07-08T05:14:08.582Z,22.50
2018-07-08T05:15:06.074Z,22.40
2018-07-08T05:16:05.916Z,22.50
2018-07-08T05:17:10.886Z,22.60
2018-07-08T05:18:05.786Z,22.70
2018-07-08T05:19:05.532Z,22.70
2018-07-08T05:20:05.385Z,22.80
2018-07-08T05:21:05.388Z,22.80
2018-07-08T05:22:08.966Z,23.00
2018-07-08T05:23:05.475Z,23.00
2018-07-08T05:24:05.299Z,23.00
2018-07-08T05:25:05.990Z,23.10
2018-07-08T05:26:10.481Z,23.20
2018-07-08T05:27:05.988Z,23.30
2018-07-08T05:28:05.389Z,23.30
2018-07-08T05:29:08.808Z,23.30
2018-07-08T05:30:05.394Z,23.20
2018-07-08T05:31:05.640Z,23.20
2018-07-08T05:32:10.446Z,23.10
2018-07-08T05:33:05.820Z,23.10
2018-07-08T05:34:05.889Z,23.10
2018-07-08T05:35:05.584Z,23.00
2018-07-08T05:36:08.556Z,22.90
2018-07-08T05:37:05.904Z,22.90
2018-07-08T05:38:10.995Z,22.80
2018-07-08T05:39:05.343Z,22.80
2018-07-08T05:40:10.309Z,22.80
2018-07-08T05:41:05.722Z,22.90
2018-07-08T05:42:05.432Z,22.90
2018-07-08T05:43:08.247Z,23.10
2018-07-08T05:44:05.550Z,23.10
2018-07-08T05:45:05.774Z,23.20
2018-07-08T05:46:11.705Z,23.30
2018-07-08T05:47:05.959Z,23.40
2018-07-08T05:48:10.191Z,23.50
2018-07-08T05:49:08.337Z,23.60
2018-07-08T05:50:11.732Z,23.60
2018-07-08T05:51:05.277Z,23.60
2018-07-08T05:52:05.770Z,23.70
2018-07-08T05:53:08.533Z,23.60
2018-07-08T05:54:09.306Z,23.50
2018-07-08T05:55:06.067Z,23.50
2018-07-08T05:56:10.510Z,23.50
2018-07-08T05:57:10.868Z,23.40
2018-07-08T05:58:06.091Z,23.50
2018-07-08T05:59:05.734Z,23.50
2018-07-08T06:00:05.552Z,23.50
2018-07-08T06:01:05.142Z,23.60
2018-07-08T06:02:05.668Z,23.60
2018-07-08T06:03:05.704Z,23.70
2018-07-08T06:04:10.361Z,23.90
2018-07-08T06:05:06.073Z,23.90
2018-07-08T06:06:05.408Z,24.00
2018-07-08T06:07:05.459Z,24.10
2018-07-08T06:08:05.410Z,24.10
2018-07-08T06:09:10.341Z,24.10
2018-07-08T06:10:08.031Z,24.20
2018-07-08T06:11:10.612Z,24.10
2018-07-08T06:12:05.913Z,24.10
2018-07-08T06:13:08.361Z,24.10
2018-07-08T06:14:05.903Z,24.10
2018-07-08T06:15:05.442Z,24.10
2018-07-08T06:16:09.470Z,24.20
2018-07-08T06:17:11.072Z,24.20
2018-07-08T06:18:10.808Z,24.30
2018-07-08T06:19:05.366Z,24.40
2018-07-08T06:20:06.450Z,24.30
2018-07-08T06:21:10.472Z,24.30
2018-07-08T06:22:05.768Z,24.30
2018-07-08T06:23:10.660Z,24.40
2018-07-08T06:24:05.088Z,24.40
2018-07-08T06:25:10.848Z,24.40
2018-07-08T06:26:06.206Z,24.40
2018-07-08T06:27:10.764Z,24.40
2018-07-08T06:28:06.062Z,24.40
2018-07-08T06:29:08.888Z,24.50
2018-07-08T06:30:05.628Z,24.50
2018-07-08T06:31:10.782Z,24.60
2018-07-08T06:32:05.293Z,24.60
2018-07-08T06:33:05.354Z,24.70
2018-07-08T06:34:06.026Z,24.80
2018-07-08T06:35:05.834Z,24.80
2018-07-08T06:36:05.946Z,24.90
2018-07-08T06:37:10.539Z,24.90
2018-07-08T06:38:05.894Z,24.90
2018-07-08T06:39:05.572Z,25.00
2018-07-08T06:40:05.546Z,25.10
2018-07-08T06:41:08.194Z,25.00
2018-07-08T06:42:10.764Z,24.90
2018-07-08T06:43:05.885Z,24.90
2018-07-08T06:44:05.753Z,24.90
2018-07-08T06:45:08.182Z,24.90
2018-07-08T06:46:05.516Z,24.90
2018-07-08T06:47:05.693Z,24.90
2018-07-08T06:48:05.598Z,25.00
2018-07-08T06:49:07.700Z,25.00
2018-07-08T06:50:05.155Z,25.00
2018-07-08T06:51:05.978Z,24.90
2018-07-08T06:52:05.941Z,25.00
2018-07-08T06:53:08.121Z,25.00
2018-07-08T06:54:05.471Z,24.90
2018-07-08T06:55:08.032Z,25.00
2018-07-08T06:56:05.535Z,25.00
2018-07-08T06:57:05.767Z,25.00
2018-07-08T06:58:05.998Z,25.00
2018-07-08T06:59:05.762Z,25.10
2018-07-08T07:00:07.984Z,25.20
2018-07-08T07:01:05.363Z,25.20
2018-07-08T07:02:08.932Z,25.20
2018-07-08T07:03:05.390Z,25.20
2018-07-08T07:04:05.108Z,25.30
2018-07-08T07:05:05.662Z,25.30
2018-07-08T07:06:08.191Z,25.20
2018-07-08T07:07:08.897Z,25.20
2018-07-08T07:08:05.340Z,25.20
2018-07-08T07:09:06.024Z,25.20
2018-07-08T07:10:05.283Z,25.20
2018-07-08T07:11:06.045Z,25.20
2018-07-08T07:12:06.156Z,25.20
2018-07-08T07:13:09.874Z,25.10
2018-07-08T07:14:08.899Z,25.20
2018-07-08T07:15:05.421Z,25.20
2018-07-08T07:16:05.340Z,25.10
2018-07-08T07:17:14.016Z,25.10
2018-07-08T07:18:08.287Z,25.00
2018-07-08T07:19:10.737Z,25.00
2018-07-08T07:20:10.359Z,24.90
2018-07-08T07:21:10.823Z,24.80
2018-07-08T07:22:05.224Z,24.80
2018-07-08T07:23:05.754Z,24.80
2018-07-08T07:24:05.595Z,24.70
2018-07-08T07:25:05.617Z,24.60
2018-07-08T07:26:07.933Z,24.50
2018-07-08T07:27:07.789Z,24.50
2018-07-08T07:28:05.163Z,24.50
2018-07-08T07:29:05.229Z,24.50
2018-07-08T07:30:05.127Z,24.60
2018-07-08T07:31:08.256Z,24.60
2018-07-08T07:32:05.609Z,24.60
2018-07-08T07:33:05.890Z,24.70
2018-07-08T07:34:05.525Z,24.70
2018-07-08T07:35:05.577Z,24.70
2018-07-08T07:36:10.437Z,24.80
2018-07-08T07:37:05.784Z,24.80
2018-07-08T07:38:05.354Z,24.80
2018-07-08T07:39:06.098Z,24.90
2018-07-08T07:40:06.143Z,24.90
2018-07-08T07:41:05.831Z,24.90
2018-07-08T07:42:05.752Z,25.00
2018-07-08T07:43:05.479Z,25.00
2018-07-08T07:44:08.670Z,25.00
2018-07-08T07:45:11.128Z,25.00
2018-07-08T07:46:08.445Z,24.90
2018-07-08T07:47:05.843Z,24.90
2018-07-08T07:48:08.422Z,24.80
2018-07-08T07:49:06.160Z,24.80
2018-07-08T07:50:05.528Z,24.80
2018-07-08T07:51:05.407Z,24.80
2018-07-08T07:52:05.956Z,24.80
2018-07-08T07:53:05.724Z,24.80
2018-07-08T07:54:06.027Z,24.80
2018-07-08T07:55:07.627Z,24.90
2018-07-08T07:56:08.865Z,24.90
2018-07-08T07:57:05.265Z,24.90
2018-07-08T07:58:06.175Z,25.00
2018-07-08T07:59:05.889Z,24.90
2018-07-08T08:00:15.365Z,24.80
2018-07-08T08:01:08.223Z,24.80
2018-07-08T08:02:05.766Z,24.80
2018-07-08T08:03:05.985Z,24.70
2018-07-08T08:04:05.891Z,24.60
2018-07-08T08:05:05.954Z,24.50
2018-07-08T08:06:05.296Z,24.40
2018-07-08T08:07:06.055Z,24.30
2018-07-08T08:08:05.514Z,24.20
2018-07-08T08:09:05.454Z,24.20
2018-07-08T08:10:05.808Z,24.20
2018-07-08T08:11:05.475Z,24.20
2018-07-08T08:12:10.548Z,24.20
2018-07-08T08:13:05.750Z,24.20
2018-07-08T08:14:05.813Z,24.20
2018-07-08T08:15:08.217Z,24.30
2018-07-08T08:16:13.514Z,24.30
2018-07-08T08:17:05.611Z,24.40
2018-07-08T08:18:08.807Z,24.40
2018-07-08T08:19:05.402Z,24.40
2018-07-08T08:20:08.954Z,24.50
2018-07-08T08:21:08.028Z,24.50
2018-07-08T08:22:10.605Z,24.50
2018-07-08T08:23:09.091Z,24.60
2018-07-08T08:24:05.880Z,24.60
2018-07-08T08:25:10.927Z,24.70
2018-07-08T08:26:05.829Z,24.80
2018-07-08T08:27:05.416Z,24.80
2018-07-08T08:28:09.061Z,24.90
2018-07-08T08:29:05.140Z,24.90
2018-07-08T08:30:05.609Z,24.90
2018-07-08T08:31:06.044Z,24.90
2018-07-08T08:32:08.829Z,24.90
2018-07-08T08:33:07.707Z,24.90
2018-07-08T08:34:05.267Z,24.90
2018-07-08T08:35:05.585Z,24.90
2018-07-08T08:36:05.413Z,24.80
2018-07-08T08:37:05.401Z,24.80
2018-07-08T08:38:05.504Z,24.80
2018-07-08T08:39:06.379Z,24.80
2018-07-08T08:40:05.993Z,24.80
2018-07-08T08:41:10.561Z,24.80
2018-07-08T08:42:08.796Z,24.80
2018-07-08T08:43:05.184Z,24.80
2018-07-08T08:44:05.816Z,24.80
2018-07-08T08:45:10.383Z,24.90
2018-07-08T08:46:08.909Z,24.90
2018-07-08T08:47:09.700Z,25.00
2018-07-08T08:48:05.641Z,24.90
2018-07-08T08:49:05.834Z,24.90
2018-07-08T08:50:05.126Z,25.00
2018-07-08T08:51:05.908Z,25.00
2018-07-08T08:52:05.378Z,25.10
2018-07-08T08:53:05.973Z,25.10
2018-07-08T08:54:05.388Z,25.20
2018-07-08T08:55:06.355Z,25.20
2018-07-08T08:56:05.936Z,25.20
2018-07-08T08:57:08.765Z,25.20
2018-07-08T08:58:05.120Z,25.20
2018-07-08T08:59:08.396Z,25.10
2018-07-08T09:00:05.349Z,25.00
2018-07-08T09:01:10.853Z,25.00
2018-07-08T09:02:05.152Z,24.90
2018-07-08T09:03:08.030Z,24.90
2018-07-08T09:04:05.493Z,24.90
2018-07-08T09:05:06.676Z,24.90
2018-07-08T09:06:05.709Z,24.90
2018-07-08T09:07:05.736Z,24.90
2018-07-08T09:08:09.950Z,24.90
2018-07-08T09:09:05.173Z,24.90
2018-07-08T09:10:07.712Z,24.90
2018-07-08T09:11:10.147Z,24.90
2018-07-08T09:12:05.339Z,24.90
2018-07-08T09:13:08.600Z,25.00
2018-07-08T09:14:08.487Z,25.00
2018-07-08T09:15:06.010Z,24.90
2018-07-08T09:16:05.743Z,24.90
2018-07-08T09:17:05.183Z,24.80
2018-07-08T09:18:05.940Z,24.80
2018-07-08T09:19:05.201Z,24.80
2018-07-08T09:20:08.586Z,24.70
2018-07-08T09:21:06.010Z,24.70
2018-07-08T09:22:05.648Z,24.80
2018-07-08T09:23:05.718Z,24.70
2018-07-08T09:24:05.658Z,24.70
2018-07-08T09:25:05.448Z,24.70
2018-07-08T09:26:10.166Z,24.60
2018-07-08T09:27:09.704Z,24.60
2018-07-08T09:28:05.116Z,24.60
2018-07-08T09:29:05.855Z,24.60
2018-07-08T09:30:05.411Z,24.50
2018-07-08T09:31:08.245Z,24.50
2018-07-08T09:32:19.124Z,24.50
2018-07-08T09:33:10.674Z,24.40
2018-07-08T09:34:05.990Z,24.40
2018-07-08T09:35:05.558Z,24.50
2018-07-08T09:36:05.386Z,24.50
2018-07-08T09:37:08.747Z,24.50
2018-07-08T09:38:10.218Z,24.50
2018-07-08T09:39:05.690Z,24.50
2018-07-08T09:40:08.715Z,24.60
2018-07-08T09:41:05.149Z,24.60
2018-07-08T09:42:08.634Z,24.60
2018-07-08T09:43:06.201Z,24.60
2018-07-08T09:44:05.772Z,24.60
2018-07-08T09:45:05.790Z,24.60
2018-07-08T09:46:10.188Z,24.70
2018-07-08T09:47:08.929Z,24.80
2018-07-08T09:48:05.308Z,24.80
2018-07-08T09:49:08.054Z,24.80
2018-07-08T09:50:05.549Z,24.80
2018-07-08T09:51:08.658Z,24.90
2018-07-08T09:52:05.620Z,24.80
2018-07-08T09:53:11.024Z,25.00
2018-07-08T09:54:05.748Z,25.00
2018-07-08T09:55:08.636Z,25.20
2018-07-08T09:56:05.061Z,25.20
2018-07-08T09:57:05.946Z,25.20
2018-07-08T09:58:05.291Z,25.30
2018-07-08T09:59:08.211Z,25.40
2018-07-08T10:00:09.477Z,25.50
2018-07-08T10:01:08.464Z,25.60
2018-07-08T10:02:06.556Z,25.50
2018-07-08T10:03:05.661Z,25.70
2018-07-08T10:04:05.134Z,25.70
2018-07-08T10:05:05.981Z,25.70
2018-07-08T10:06:05.201Z,25.70
2018-07-08T10:07:08.523Z,25.70
2018-07-08T10:08:08.613Z,25.70
2018-07-08T10:09:11.148Z,25.70
2018-07-08T10:10:08.007Z,25.70
2018-07-08T10:11:05.985Z,25.70
2018-07-08T10:12:10.074Z,25.70
2018-07-08T10:13:05.201Z,25.80
2018-07-08T10:14:06.136Z,25.90
2018-07-08T10:15:10.326Z,26.00
2018-07-08T10:16:10.747Z,26.00
2018-07-08T10:17:06.101Z,26.00
2018-07-08T10:18:05.826Z,26.00
2018-07-08T10:19:07.726Z,26.10
2018-07-08T10:20:08.785Z,26.20
2018-07-08T10:21:08.449Z,26.20
2018-07-08T10:22:05.906Z,26.10
2018-07-08T10:23:05.664Z,26.20
2018-07-08T10:24:05.203Z,26.20
2018-07-08T10:25:05.985Z,26.10
2018-07-08T10:26:05.638Z,26.10
2018-07-08T10:27:05.685Z,26.10
2018-07-08T10:28:05.450Z,26.10
2018-07-08T10:29:10.856Z,26.00
2018-07-08T10:30:05.649Z,26.10
2018-07-08T10:31:05.175Z,26.10
2018-07-08T10:32:05.861Z,26.20
2018-07-08T10:33:05.273Z,26.20
2018-07-08T10:34:09.024Z,26.30
2018-07-08T10:35:10.515Z,26.40
2018-07-08T10:36:05.644Z,26.40
2018-07-08T10:37:08.762Z,26.50
2018-07-08T10:38:05.305Z,26.50
2018-07-08T10:39:05.223Z,26.50
2018-07-08T10:40:05.079Z,26.50
2018-07-08T10:41:05.215Z,26.50
2018-07-08T10:42:05.857Z,26.40
2018-07-08T10:43:05.188Z,26.30
2018-07-08T10:44:05.409Z,26.20
2018-07-08T10:45:10.072Z,26.10
2018-07-08T10:46:05.637Z,26.00
2018-07-08T10:47:10.337Z,25.90
2018-07-08T10:48:05.770Z,25.90
2018-07-08T10:49:05.466Z,25.80
2018-07-08T10:50:06.069Z,25.80
2018-07-08T10:51:05.880Z,25.80
2018-07-08T10:52:06.068Z,25.80
2018-07-08T10:53:06.009Z,25.80
2018-07-08T10:54:05.154Z,25.80
2018-07-08T10:55:05.517Z,25.80
2018-07-08T10:56:10.569Z,25.80
2018-07-08T10:57:11.024Z,25.80
2018-07-08T10:58:10.494Z,25.80
2018-07-08T10:59:10.471Z,25.70
2018-07-08T11:00:05.938Z,25.70
2018-07-08T11:01:08.455Z,25.70
2018-07-08T11:02:09.477Z,25.70
2018-07-08T11:03:08.857Z,25.80
2018-07-08T11:04:05.308Z,25.80
2018-07-08T11:05:05.918Z,25.80
2018-07-08T11:06:10.342Z,25.80
2018-07-08T11:07:05.884Z,25.80
2018-07-08T11:08:05.880Z,25.80
2018-07-08T11:09:10.317Z,25.70
2018-07-08T11:10:05.635Z,25.70
2018-07-08T11:11:05.355Z,25.70
2018-07-08T11:12:05.581Z,25.70
2018-07-08T11:13:08.595Z,25.70
2018-07-08T11:14:06.510Z,25.70
2018-07-08T11:15:05.763Z,25.70
2018-07-08T11:16:10.387Z,25.60
2018-07-08T11:17:10.563Z,25.50
2018-07-08T11:18:05.819Z,25.50
2018-07-08T11:19:08.091Z,25.60
2018-07-08T11:20:05.989Z,25.60
2018-07-08T11:21:05.597Z,25.60
2018-07-08T11:22:05.404Z,25.60
2018-07-08T11:23:06.490Z,25.70
2018-07-08T11:24:08.849Z,25.60
2018-07-08T11:25:10.513Z,25.60
2018-07-08T11:26:08.380Z,25.60
2018-07-08T11:27:05.994Z,25.60
2018-07-08T11:28:05.653Z,25.60
2018-07-08T11:29:05.039Z,25.60
2018-07-08T11:30:05.553Z,25.70
2018-07-08T11:31:05.275Z,25.60
2018-07-08T11:32:05.856Z,25.60
2018-07-08T11:33:05.786Z,25.60
2018-07-08T11:34:10.365Z,25.60
2018-07-08T11:35:05.470Z,25.60
2018-07-08T11:36:05.292Z,25.60
2018-07-08T11:37:05.809Z,25.50
2018-07-08T11:38:05.962Z,25.50
2018-07-08T11:39:05.419Z,25.50
2018-07-08T11:40:05.098Z,25.50
2018-07-08T11:41:05.668Z,25.60
2018-07-08T11:42:05.718Z,25.60
2018-07-08T11:43:05.639Z,25.60
2018-07-08T11:44:06.132Z,25.70
2018-07-08T11:45:08.173Z,25.90
2018-07-08T11:46:05.722Z,25.90
2018-07-08T11:47:05.353Z,26.00
2018-07-08T11:48:05.436Z,26.00
2018-07-08T11:49:08.024Z,26.00
2018-07-08T11:50:10.970Z,26.00
2018-07-08T11:51:05.349Z,26.00
2018-07-08T11:52:05.809Z,26.00
2018-07-08T11:53:11.080Z,25.90
2018-07-08T11:54:08.029Z,25.80
2018-07-08T11:55:08.705Z,25.80
2018-07-08T11:56:07.936Z,25.80
2018-07-08T11:57:05.328Z,25.70
2018-07-08T11:58:05.309Z,25.70
2018-07-08T11:59:10.791Z,25.70
2018-07-08T12:00:05.417Z,25.60
2018-07-08T12:01:10.340Z,25.60
2018-07-08T12:02:05.533Z,25.60
2018-07-08T12:03:05.119Z,25.50
2018-07-08T12:04:08.819Z,25.40
2018-07-08T12:05:05.380Z,25.40
2018-07-08T12:06:05.017Z,25.30
2018-07-08T12:07:06.188Z,25.20
2018-07-08T12:08:10.667Z,25.30
2018-07-08T12:09:13.340Z,25.30
2018-07-08T12:10:08.853Z,25.30
2018-07-08T12:11:10.431Z,25.40
2018-07-08T12:12:05.645Z,25.40
2018-07-08T12:13:05.753Z,25.40
2018-07-08T12:14:05.912Z,25.50
2018-07-08T12:15:08.272Z,25.70
2018-07-08T12:16:05.074Z,25.70
2018-07-08T12:17:08.741Z,25.90
2018-07-08T12:18:05.167Z,25.90
2018-07-08T12:19:05.783Z,26.00
2018-07-08T12:20:05.718Z,26.00
2018-07-08T12:21:05.610Z,26.00
2018-07-08T12:22:05.972Z,26.10
2018-07-08T12:23:05.500Z,26.10
2018-07-08T12:24:05.310Z,26.20
2018-07-08T12:25:05.973Z,26.20
2018-07-08T12:26:08.569Z,26.20
2018-07-08T12:27:11.181Z,26.20
2018-07-08T12:28:05.597Z,26.20
2018-07-08T12:29:05.760Z,26.10
2018-07-08T12:30:06.074Z,26.00
2018-07-08T12:31:05.422Z,26.00
2018-07-08T12:32:05.911Z,26.00
2018-07-08T12:33:05.631Z,26.10
2018-07-08T12:34:10.237Z,26.10
2018-07-08T12:35:05.546Z,26.10
2018-07-08T12:36:07.890Z,26.20
2018-07-08T12:37:05.341Z,26.20
2018-07-08T12:38:05.805Z,26.10
2018-07-08T12:39:10.280Z,26.10
2018-07-08T12:40:05.653Z,26.10
2018-07-08T12:41:05.188Z,26.00
2018-07-08T12:42:10.768Z,26.00
2018-07-08T12:43:06.189Z,26.10
2018-07-08T12:44:05.791Z,26.10
2018-07-08T12:45:05.459Z,26.20
2018-07-08T12:46:05.686Z,26.20
2018-07-08T12:47:05.915Z,26.10
2018-07-08T12:48:05.311Z,26.10
2018-07-08T12:49:05.643Z,26.00
2018-07-08T12:50:05.232Z,26.00
2018-07-08T12:51:06.092Z,26.00
2018-07-08T12:52:05.976Z,26.10